createdAt,value
2018-10-07T00:00:30.092Z,64.50
2018-10-07T00:02:58.753Z,65.20
2018-10-07T00:05:27.406Z,65.30
2018-10-07T00:07:56.106Z,65.20
2018-10-07T00:10:24.868Z,65.00
2018-10-07T00:12:53.538Z,65.00
2018-10-07T00:15:22.226Z,65.00
2018-10-07T00:17:50.895Z,65.10
2018-10-07T00:20:19.548Z,65.20
2018-10-07T00:22:48.268Z,65.10
2018-10-07T00:25:17.010Z,65.00
2018-10-07T00:27:45.711Z,65.10
2018-10-07T00:30:14.423Z,65.20
2018-10-07T00:32:43.105Z,65.10
2018-10-07T00:35:11.783Z,64.90
2018-10-07T00:37:40.423Z,65.00
2018-10-07T00:40:09.081Z,64.90
2018-10-07T00:42:37.765Z,65.00
2018-10-07T00:45:06.437Z,65.00
2018-10-07T00:47:35.107Z,64.90
2018-10-07T00:50:03.793Z,64.90
2018-10-07T00:52:32.477Z,64.70
2018-10-07T00:55:01.122Z,64.70
2018-10-07T00:57:29.791Z,64.80
2018-10-07T00:59:58.480Z,64.60
2018-10-07T01:02:27.134Z,64.80
2018-10-07T01:04:55.797Z,64.80
2018-10-07T01:07:24.468Z,64.90
2018-10-07T01:09:53.118Z,64.80
2018-10-07T01:12:21.809Z,64.80
2018-10-07T01:14:50.479Z,64.70
2018-10-07T01:17:19.138Z,64.70
2018-10-07T01:19:47.827Z,64.70
2018-10-07T01:22:16.637Z,64.70
2018-10-07T01:24:45.300Z,64.80
2018-10-07T01:27:13.993Z,64.80
2018-10-07T01:29:42.640Z,64.90
2018-10-07T01:32:11.318Z,64.70
2018-10-07T01:34:40.115Z,64.70
2018-10-07T01:37:08.795Z,64.70
2018-10-07T01:39:37.461Z,64.60
2018-10-07T01:42:06.174Z,64.50
2018-10-07T01:44:34.841Z,64.30
2018-10-07T01:47:03.543Z,64.40
2018-10-07T01:49:32.199Z,64.20
2018-10-07T01:52:00.875Z,64.20
2018-10-07T01:54:29.523Z,64.10
2018-10-07T01:56:58.274Z,64.00
2018-10-07T01:59:27.033Z,64.10
2018-10-07T02:01:55.591Z,63.90
2018-10-07T02:04:24.281Z,64.00
2018-10-07T02:06:52.923Z,63.80
2018-10-07T02:09:21.620Z,63.80
2018-10-07T02:11:50.390Z,65.10
2018-10-07T02:14:19.064Z,64.00
2018-10-07T02:16:47.868Z,64.40
2018-10-07T02:19:16.561Z,64.10
2018-10-07T02:21:45.215Z,64.10
2018-10-07T02:24:13.876Z,64.10
2018-10-07T02:26:42.590Z,63.80
2018-10-07T02:29:11.269Z,64.00
2018-10-07T02:31:39.937Z,64.10
2018-10-07T02:34:08.758Z,63.90
2018-10-07T02:36:37.444Z,63.80
2018-10-07T02:39:07.264Z,63.50
2018-10-07T02:41:35.926Z,63.60
2018-10-07T02:44:04.588Z,64.30
2018-10-07T02:46:33.321Z,63.60
2018-10-07T02:49:02.404Z,63.60
2018-10-07T02:51:31.064Z,63.50
2018-10-07T02:53:59.736Z,63.80
2018-10-07T02:56:28.391Z,64.00
2018-10-07T02:58:57.060Z,64.00
2018-10-07T03:01:25.741Z,64.20
2018-10-07T03:03:54.544Z,63.90
2018-10-07T03:06:23.183Z,64.50
2018-10-07T03:08:51.879Z,65.00
2018-10-07T03:11:20.546Z,65.00
2018-10-07T03:13:49.228Z,65.60
2018-10-07T03:16:17.877Z,65.20
2018-10-07T03:18:46.627Z,65.50
2018-10-07T03:21:15.300Z,65.50
2018-10-07T03:23:43.943Z,65.50
2018-10-07T03:26:12.617Z,65.90
2018-10-07T03:28:41.356Z,65.90
2018-10-07T03:31:10.100Z,65.80
2018-10-07T03:33:38.784Z,65.90
2018-10-07T03:36:07.448Z,66.20
2018-10-07T03:38:36.121Z,66.30
2018-10-07T03:41:04.769Z,65.70
2018-10-07T03:43:33.464Z,66.10
2018-10-07T03:46:02.112Z,66.10
2018-10-07T03:48:30.794Z,65.60
2018-10-07T03:50:59.516Z,65.90
2018-10-07T03:53:28.194Z,66.10
2018-10-07T03:55:56.851Z,66.20
2018-10-07T03:58:25.524Z,66.30
2018-10-07T04:00:54.276Z,66.90
2018-10-07T04:03:23.069Z,66.30
2018-10-07T04:05:51.850Z,66.00
2018-10-07T04:08:20.505Z,66.10
2018-10-07T04:10:49.171Z,66.30
2018-10-07T04:13:17.862Z,66.90
2018-10-07T04:15:46.531Z,66.60
2018-10-07T04:18:15.227Z,67.50
2018-10-07T04:20:43.897Z,67.10
2018-10-07T04:23:12.656Z,67.80
2018-10-07T04:25:41.290Z,67.30
2018-10-07T04:28:09.960Z,67.30
2018-10-07T04:30:38.676Z,67.30
2018-10-07T04:33:07.332Z,67.20
2018-10-07T04:35:35.999Z,67.20
2018-10-07T04:38:04.661Z,67.30
2018-10-07T04:40:33.408Z,66.80
2018-10-07T04:43:02.096Z,67.70
2018-10-07T04:45:30.761Z,67.30
2018-10-07T04:47:59.424Z,67.60
2018-10-07T04:50:28.149Z,66.60
2018-10-07T04:52:56.814Z,66.80
2018-10-07T04:55:25.507Z,67.80
2018-10-07T04:57:54.293Z,67.20
2018-10-07T05:00:23.163Z,66.90
2018-10-07T05:02:51.667Z,66.30
2018-10-07T05:05:21.085Z,66.90
2018-10-07T05:07:49.998Z,67.00
2018-10-07T05:10:40.888Z,67.60
2018-10-07T05:13:09.556Z,66.40
2018-10-07T05:15:38.392Z,65.00
2018-10-07T05:18:07.327Z,64.40
2018-10-07T05:20:35.988Z,64.10
2018-10-07T05:23:04.708Z,63.90
2018-10-07T05:25:33.486Z,63.80
2018-10-07T05:28:02.162Z,64.40
2018-10-07T05:30:30.842Z,64.20
2018-10-07T05:32:59.541Z,63.40
2018-10-07T05:35:28.205Z,63.40
2018-10-07T05:37:56.843Z,64.30
2018-10-07T05:40:25.595Z,63.60
2018-10-07T05:42:54.292Z,63.40
2018-10-07T05:45:22.964Z,63.40
2018-10-07T05:47:51.651Z,63.70
2018-10-07T05:50:20.320Z,63.90
2018-10-07T05:52:49.027Z,64.00
2018-10-07T05:55:17.696Z,64.00
2018-10-07T05:57:46.351Z,64.60
2018-10-07T06:00:16.313Z,64.70
2018-10-07T06:02:46.518Z,64.00
2018-10-07T06:05:15.733Z,63.00
2018-10-07T06:07:44.465Z,62.10
2018-10-07T06:10:13.124Z,62.80
2018-10-07T06:12:41.785Z,62.90
2018-10-07T06:15:32.588Z,63.10
2018-10-07T06:18:01.225Z,63.10
2018-10-07T06:20:30.581Z,63.50
2018-10-07T06:22:59.441Z,63.60
2018-10-07T06:25:28.373Z,63.00
2018-10-07T06:27:57.455Z,63.00
2018-10-07T06:30:26.114Z,63.10
2018-10-07T06:32:54.802Z,63.20
2018-10-07T06:35:24.425Z,63.30
2018-10-07T06:37:53.487Z,62.60
2018-10-07T06:40:22.313Z,63.10
2018-10-07T06:42:50.983Z,63.10
2018-10-07T06:45:19.813Z,63.10
2018-10-07T06:47:48.455Z,63.10
2018-10-07T06:50:17.120Z,63.00
2018-10-07T06:52:45.788Z,63.80
2018-10-07T06:55:14.472Z,63.00
2018-10-07T06:57:43.165Z,63.00
2018-10-07T07:00:11.828Z,63.00
2018-10-07T07:02:40.470Z,63.00
2018-10-07T07:05:09.116Z,59.50
2018-10-07T07:07:37.802Z,60.40
2018-10-07T07:10:06.710Z,60.20
2018-10-07T07:12:35.383Z,59.90
2018-10-07T07:15:04.030Z,54.50
2018-10-07T07:17:32.708Z,54.60
2018-10-07T07:20:01.374Z,54.90
2018-10-07T07:22:30.115Z,54.80
2018-10-07T07:24:58.844Z,54.70
2018-10-07T07:27:27.495Z,55.20
2018-10-07T07:29:56.164Z,55.00
2018-10-07T07:32:24.817Z,55.80
2018-10-07T07:34:53.465Z,55.20
2018-10-07T07:37:22.138Z,55.20
2018-10-07T07:39:50.870Z,55.50
2018-10-07T07:42:19.825Z,58.00
2018-10-07T07:44:48.452Z,57.60
2018-10-07T07:47:17.083Z,57.60
2018-10-07T07:49:45.724Z,57.50
2018-10-07T07:52:14.462Z,57.40
2018-10-07T07:54:43.100Z,57.50
2018-10-07T07:57:11.763Z,57.60
2018-10-07T07:59:40.400Z,57.70
2018-10-07T08:02:09.051Z,57.70
2018-10-07T08:04:37.696Z,57.80
2018-10-07T08:07:06.375Z,57.90
2018-10-07T08:09:35.122Z,58.00
2018-10-07T08:12:03.787Z,58.20
2018-10-07T08:14:32.451Z,58.40
2018-10-07T08:17:01.140Z,58.70
2018-10-07T08:19:29.804Z,58.80
2018-10-07T08:21:58.491Z,58.80
2018-10-07T08:24:27.156Z,58.90
2018-10-07T08:28:19.068Z,58.50
2018-10-07T08:30:47.746Z,59.00
2018-10-07T08:33:16.413Z,59.00
2018-10-07T08:35:45.065Z,59.00
2018-10-07T08:38:13.736Z,59.00
2018-10-07T08:40:42.400Z,59.10
2018-10-07T08:43:11.050Z,58.80
2018-10-07T08:45:39.711Z,58.70
2018-10-07T08:48:08.362Z,58.60
2018-10-07T08:50:37.018Z,58.70
2018-10-07T08:53:05.689Z,58.70
2018-10-07T08:55:34.539Z,58.70
2018-10-07T08:58:03.231Z,58.80
2018-10-07T09:00:32.077Z,58.80
2018-10-07T09:03:00.770Z,58.80
2018-10-07T09:05:29.452Z,59.10
2018-10-07T09:07:58.092Z,59.00
2018-10-07T09:10:26.766Z,58.90
2018-10-07T09:12:55.438Z,59.00
2018-10-07T09:15:24.098Z,59.00
2018-10-07T09:17:52.809Z,59.00
2018-10-07T09:20:21.651Z,59.50
2018-10-07T09:22:50.324Z,60.20
2018-10-07T09:25:18.954Z,58.50
2018-10-07T09:27:48.525Z,57.80
2018-10-07T09:30:17.196Z,58.10
2018-10-07T09:32:45.910Z,58.20
2018-10-07T09:56:37.440Z,53.40
2018-10-07T09:59:06.460Z,55.40
2018-10-07T10:01:35.120Z,57.00
2018-10-07T10:04:03.853Z,57.90
2018-10-07T10:06:32.462Z,59.00
2018-10-07T10:09:01.109Z,58.60
2018-10-07T10:11:29.947Z,58.90
2018-10-07T10:13:58.601Z,59.00
2018-10-07T10:16:33.311Z,59.00
2018-10-07T10:19:03.512Z,60.10
2018-10-07T10:21:35.799Z,57.90
2018-10-07T10:24:19.364Z,53.00
2018-10-07T10:29:01.720Z,50.20
2018-10-07T10:36:35.191Z,49.80
2018-10-07T10:40:16.550Z,52.20
2018-10-07T10:42:48.176Z,52.00
2018-10-07T10:45:23.259Z,55.40
2018-10-07T10:47:55.205Z,57.20
2018-10-07T10:50:27.607Z,57.80
2018-10-07T10:53:50.268Z,58.60
2018-10-07T10:56:31.618Z,59.20
2018-10-07T10:59:06.579Z,59.00
2018-10-07T11:01:50.637Z,57.80
2018-10-07T11:04:23.988Z,58.60
2018-10-07T11:07:01.201Z,58.80
2018-10-07T11:11:42.218Z,59.40
2018-10-07T11:14:23.351Z,59.30
2018-10-07T11:16:57.785Z,59.30
2018-10-07T11:21:43.371Z,58.60
2018-10-07T11:27:35.042Z,57.10
2018-10-07T11:30:26.460Z,58.10
2018-10-07T11:33:05.581Z,57.00
2018-10-07T11:35:42.785Z,58.20
2018-10-07T11:38:18.611Z,58.40
2018-10-07T11:40:58.790Z,57.60
2018-10-07T11:43:35.568Z,55.80
2018-10-07T11:46:13.633Z,56.40
2018-10-07T11:48:50.168Z,56.50
2018-10-07T11:51:29.793Z,56.20
2018-10-07T11:54:00.277Z,54.40
2018-10-07T11:56:29.080Z,53.30
2018-10-07T11:58:57.823Z,53.90
2018-10-07T12:01:26.640Z,54.60
2018-10-07T12:03:55.370Z,56.10
2018-10-07T12:06:24.166Z,56.90
2018-10-07T12:08:52.916Z,57.20
2018-10-07T12:11:21.660Z,57.80
2018-10-07T12:13:50.402Z,58.60
2018-10-07T12:16:19.222Z,57.90
2018-10-07T12:18:47.947Z,58.40
2018-10-07T12:21:16.668Z,57.30
2018-10-07T12:23:45.384Z,56.10
2018-10-07T12:26:14.204Z,55.70
2018-10-07T12:28:43.550Z,55.70
2018-10-07T12:31:12.286Z,55.10
2018-10-07T12:33:41.813Z,55.00
2018-10-07T12:36:12.325Z,54.50
2018-10-07T12:38:41.202Z,54.70
2018-10-07T12:41:09.956Z,53.10
2018-10-07T12:43:38.766Z,52.50
2018-10-07T12:46:07.502Z,52.00
2018-10-07T12:48:36.248Z,51.50
2018-10-07T12:51:05.052Z,50.50
2018-10-07T12:53:33.789Z,50.60
2018-10-07T12:56:02.496Z,51.00
2018-10-07T12:58:31.217Z,50.70
2018-10-07T13:00:59.918Z,51.10
2018-10-07T13:03:28.689Z,51.80
2018-10-07T13:05:57.379Z,53.30
2018-10-07T13:08:26.063Z,53.90
2018-10-07T13:10:54.809Z,53.80
2018-10-07T13:13:23.589Z,52.80
2018-10-07T13:15:52.290Z,52.40
2018-10-07T13:18:21.014Z,51.80
2018-10-07T13:20:49.709Z,50.90
2018-10-07T13:23:18.503Z,51.10
2018-10-07T13:25:47.251Z,50.90
2018-10-07T13:28:16.045Z,51.10
2018-10-07T13:30:44.904Z,51.90
2018-10-07T13:33:14.337Z,52.10
2018-10-07T13:35:43.090Z,53.10
2018-10-07T13:38:11.947Z,53.80
2018-10-07T13:40:40.662Z,54.90
2018-10-07T13:43:09.372Z,54.70
2018-10-07T13:45:38.071Z,55.80
2018-10-07T13:48:06.773Z,56.20
2018-10-07T13:50:35.556Z,56.30
2018-10-07T13:53:04.305Z,56.70
2018-10-07T13:55:33.141Z,57.70
2018-10-07T13:58:01.885Z,58.30
2018-10-07T14:00:30.699Z,57.60
2018-10-07T14:02:59.463Z,57.30
2018-10-07T14:05:28.992Z,57.60
2018-10-07T14:07:57.721Z,56.00
2018-10-07T14:10:26.443Z,55.70
2018-10-07T14:12:55.209Z,55.90
2018-10-07T14:15:24.325Z,55.10
2018-10-07T14:17:53.040Z,54.60
2018-10-07T14:20:22.941Z,53.40
2018-10-07T14:22:51.636Z,53.90
2018-10-07T14:25:20.336Z,54.20
2018-10-07T14:27:49.413Z,54.00
2018-10-07T14:30:18.131Z,55.50
2018-10-07T14:32:46.909Z,56.80
2018-10-07T14:35:15.773Z,57.90
2018-10-07T14:37:44.501Z,57.40
2018-10-07T14:40:13.199Z,56.70
2018-10-07T14:42:41.938Z,58.20
2018-10-07T14:45:10.629Z,59.10
2018-10-07T14:47:39.433Z,59.70
2018-10-07T14:50:08.133Z,59.70
2018-10-07T14:52:36.834Z,60.20
2018-10-07T14:55:05.603Z,60.60
2018-10-07T14:57:34.344Z,60.50
2018-10-07T15:00:03.162Z,59.50
2018-10-07T15:02:31.979Z,60.60
2018-10-07T15:05:00.987Z,62.10
2018-10-07T15:07:29.742Z,65.00
2018-10-07T15:09:58.521Z,61.80
2018-10-07T15:12:27.280Z,59.70
2018-10-07T15:14:55.992Z,64.90
2018-10-07T15:17:24.740Z,61.80
2018-10-07T15:19:53.471Z,58.10
2018-10-07T15:22:22.614Z,58.40
2018-10-07T15:24:51.313Z,58.70
2018-10-07T15:27:20.393Z,57.00
2018-10-07T15:29:49.482Z,56.50
2018-10-07T15:32:18.404Z,56.40
2018-10-07T15:34:47.224Z,56.40
2018-10-07T15:37:16.000Z,56.90
2018-10-07T15:39:44.721Z,57.00
2018-10-07T15:42:13.502Z,57.30
2018-10-07T15:44:42.298Z,58.60
2018-10-07T15:47:11.045Z,58.50
2018-10-07T15:49:39.833Z,59.00
2018-10-07T15:52:08.550Z,59.80
2018-10-07T15:54:37.265Z,59.20
2018-10-07T15:57:06.113Z,60.90
2018-10-07T15:59:34.839Z,61.30
2018-10-07T16:02:03.554Z,62.50
2018-10-07T16:04:32.347Z,64.00
2018-10-07T16:07:01.074Z,62.60
2018-10-07T16:09:29.860Z,62.80
2018-10-07T16:11:59.646Z,62.20
2018-10-07T16:14:28.365Z,62.30
2018-10-07T16:16:57.074Z,62.40
2018-10-07T16:19:25.778Z,63.70
2018-10-07T16:21:54.481Z,62.40
2018-10-07T16:24:23.283Z,63.80
2018-10-07T16:26:51.992Z,64.40
2018-10-07T16:29:20.754Z,64.00
2018-10-07T16:31:50.052Z,64.50
2018-10-07T16:34:18.819Z,64.40
2018-10-07T16:36:47.623Z,64.80
2018-10-07T16:39:16.378Z,65.40
2018-10-07T16:41:45.096Z,65.10
2018-10-07T16:44:13.843Z,65.50
2018-10-07T16:46:42.603Z,65.70
2018-10-07T16:49:11.321Z,66.20
2018-10-07T16:51:40.026Z,66.40
2018-10-07T16:54:09.143Z,67.00
2018-10-07T16:56:37.856Z,67.30
2018-10-07T16:59:06.605Z,67.00
2018-10-07T17:01:35.391Z,66.80
2018-10-07T17:04:04.175Z,66.60
2018-10-07T17:06:32.889Z,66.00
2018-10-07T17:09:01.554Z,67.10
2018-10-07T17:11:30.312Z,67.80
2018-10-07T17:13:59.020Z,68.70
2018-10-07T17:16:27.755Z,72.80
2018-10-07T17:18:56.519Z,70.10
2018-10-07T17:21:25.776Z,69.20
2018-10-07T17:23:54.575Z,68.70
2018-10-07T17:26:23.430Z,68.50
2018-10-07T17:28:52.179Z,68.80
2018-10-07T17:31:20.979Z,68.70
2018-10-07T17:33:49.750Z,68.80
2018-10-07T17:36:18.529Z,69.30
2018-10-07T17:38:47.311Z,69.80
2018-10-07T17:41:16.083Z,69.60
2018-10-07T17:43:44.807Z,69.50
2018-10-07T17:46:13.578Z,69.70
2018-10-07T17:48:42.550Z,69.50
2018-10-07T17:51:11.463Z,69.80
2018-10-07T17:53:40.305Z,70.60
2018-10-07T17:56:09.076Z,70.60
2018-10-07T17:58:37.882Z,70.90
2018-10-07T18:01:06.631Z,70.70
2018-10-07T18:03:35.406Z,70.90
2018-10-07T18:06:04.188Z,70.60
2018-10-07T18:08:32.936Z,71.20
2018-10-07T18:11:01.801Z,71.40
2018-10-07T18:13:30.594Z,71.10
2018-10-07T18:15:59.322Z,70.90
2018-10-07T18:18:28.117Z,70.90
2018-10-07T18:20:56.875Z,71.50
2018-10-07T18:23:25.612Z,71.60
2018-10-07T18:25:54.468Z,71.60
2018-10-07T18:28:23.255Z,72.00
2018-10-07T18:30:53.409Z,71.70
2018-10-07T18:33:22.214Z,71.50
2018-10-07T18:35:51.070Z,70.60
2018-10-07T18:38:20.173Z,70.40
2018-10-07T18:40:49.052Z,71.50
2018-10-07T18:43:17.882Z,71.30
2018-10-07T18:45:50.119Z,71.50
2018-10-07T18:48:19.099Z,71.80
2018-10-07T18:50:48.364Z,72.90
2018-10-07T18:53:19.180Z,72.50
2018-10-07T18:58:37.843Z,72.50
2018-10-07T19:01:06.941Z,72.90
2018-10-07T19:03:37.019Z,73.10
2018-10-07T19:06:08.562Z,72.50
2018-10-07T19:08:37.491Z,74.20
2018-10-07T19:11:06.255Z,72.70
2018-10-07T19:13:35.523Z,72.40
2018-10-07T19:16:07.418Z,72.70
2018-10-07T19:18:36.692Z,72.30
2018-10-07T19:21:09.381Z,72.70
2018-10-07T19:23:40.371Z,72.50
2018-10-07T19:26:09.194Z,73.20
2018-10-07T19:28:37.966Z,72.10
2018-10-07T19:31:07.140Z,71.80
2018-10-07T19:33:36.233Z,72.20
2018-10-07T19:36:06.415Z,72.70
2018-10-07T19:38:35.544Z,72.60
2018-10-07T19:41:05.672Z,72.20
2018-10-07T19:43:34.627Z,72.60
2018-10-07T19:46:04.344Z,72.70
2018-10-07T19:48:33.385Z,72.70
2018-10-07T19:51:02.111Z,72.90
2018-10-07T19:53:31.409Z,72.70
2018-10-07T19:56:00.276Z,72.70
2018-10-07T19:58:29.232Z,72.90
2018-10-07T20:00:58.298Z,73.00
2018-10-07T20:03:27.812Z,73.90
2018-10-07T20:05:56.692Z,72.80
2018-10-07T20:08:32.138Z,72.90
2018-10-07T20:11:01.124Z,72.80
2018-10-07T20:13:30.782Z,72.50
2018-10-07T20:18:34.773Z,73.10
2018-10-07T20:21:04.229Z,73.20
2018-10-07T20:23:33.220Z,73.00
2018-10-07T20:26:02.152Z,74.20
2018-10-07T20:28:31.109Z,73.20
2018-10-07T20:30:59.983Z,72.30
2018-10-07T20:33:28.871Z,72.90
2018-10-07T20:35:57.744Z,73.30
2018-10-07T20:38:26.496Z,73.50
2018-10-07T20:40:56.098Z,73.90
2018-10-07T20:43:25.504Z,74.20
2018-10-07T20:45:54.327Z,74.20
2018-10-07T20:48:23.048Z,73.80
2018-10-07T20:50:51.768Z,73.80
2018-10-07T20:53:21.693Z,74.00
2018-10-07T20:55:51.504Z,74.20
2018-10-07T20:58:20.875Z,74.50
2018-10-07T21:00:50.940Z,75.30
2018-10-07T21:03:20.178Z,74.40
2018-10-07T21:05:49.297Z,74.20
2018-10-07T21:08:18.138Z,74.40
2018-10-07T21:10:46.848Z,75.20
2018-10-07T21:13:15.603Z,74.80
2018-10-07T21:15:44.278Z,75.10
2018-10-07T21:18:12.963Z,75.50
2018-10-07T21:20:43.107Z,75.90
2018-10-07T21:23:11.815Z,75.80
2018-10-07T21:25:40.510Z,75.50
2018-10-07T21:28:09.283Z,75.40
2018-10-07T21:30:38.048Z,75.40
2018-10-07T21:33:06.716Z,75.20
2018-10-07T21:35:35.410Z,75.30
2018-10-07T21:38:04.098Z,75.30
2018-10-07T21:40:32.815Z,75.50
2018-10-07T21:43:01.793Z,75.50
2018-10-07T21:45:30.566Z,75.40
2018-10-07T21:47:59.329Z,75.80
2018-10-07T21:50:28.068Z,76.10
2018-10-07T21:52:56.803Z,76.40
2018-10-07T21:55:25.532Z,76.60
2018-10-07T21:57:54.264Z,76.70
2018-10-07T22:00:22.966Z,76.70
2018-10-07T22:02:51.724Z,76.90
2018-10-07T22:05:20.424Z,76.60
2018-10-07T22:07:49.236Z,76.30
2018-10-07T22:10:18.070Z,76.20
2018-10-07T22:12:46.835Z,76.40
2018-10-07T22:15:15.557Z,76.60
2018-10-07T22:17:44.291Z,76.90
2018-10-07T22:20:13.015Z,77.10
2018-10-07T22:22:41.762Z,77.10
2018-10-07T22:25:10.493Z,77.30
2018-10-07T22:27:39.236Z,77.20
2018-10-07T22:30:08.115Z,77.30
2018-10-07T22:32:36.846Z,77.40
2018-10-07T22:35:05.652Z,77.30
2018-10-07T22:37:34.412Z,77.20
2018-10-07T22:40:03.145Z,76.70
2018-10-07T22:42:31.892Z,76.40
2018-10-07T22:45:00.647Z,76.00
2018-10-07T22:47:29.375Z,76.30
2018-10-07T22:49:58.100Z,76.40
2018-10-07T22:52:27.091Z,76.80
2018-10-07T22:54:55.797Z,77.30
2018-10-07T22:57:24.648Z,77.40
2018-10-07T22:59:53.409Z,77.60
2018-10-07T23:02:22.219Z,77.90
2018-10-07T23:04:50.961Z,77.90
2018-10-07T23:07:20.720Z,77.80
2018-10-07T23:09:49.434Z,77.90
2018-10-07T23:12:18.197Z,77.60
2018-10-07T23:14:46.931Z,76.90
2018-10-07T23:17:15.642Z,76.90
2018-10-07T23:19:44.347Z,77.50
2018-10-07T23:22:13.066Z,77.80
2018-10-07T23:24:41.816Z,77.40
2018-10-07T23:27:10.482Z,77.40
2018-10-07T23:29:39.239Z,77.90
2018-10-07T23:32:08.093Z,78.00
2018-10-07T23:34:36.791Z,78.10
2018-10-07T23:37:05.719Z,78.40
2018-10-07T23:39:34.446Z,78.10
2018-10-07T23:42:03.185Z,78.20
2018-10-07T23:44:31.898Z,78.20
2018-10-07T23:47:00.606Z,78.00
2018-10-07T23:49:29.360Z,78.00
2018-10-07T23:51:58.111Z,78.60
2018-10-07T23:54:26.909Z,78.60
2018-10-07T23:56:55.600Z,78.70
2018-10-07T23:59:24.352Z,79.00
